Time;durP1;ratioP1;P1;durP2;ratioP2;P2;SDS_P1;SDS_P2;PMS_P1;PMS_P2;Temp;Humidity;BMP_temperature;BMP_pressure;BME280_temperature;BME280_humidity;BME280_pressure;Samples;Min_cycle;Max_cycle;Signal;HPM_P1;HPM_P2
2023/07/04 00:01:00;;;;;;;9.23;7.97;;;;;;;18.62;82.06;96324.41;5094548;28;20043;-65
2023/07/04 00:03:28;;;;;;;8.88;7.93;;;;;;;18.60;81.92;96321.03;5094498;28;20044;-66
2023/07/04 00:05:55;;;;;;;9.20;8.30;;;;;;;18.54;82.40;96317.88;5094572;28;20395;-66
2023/07/04 00:08:25;;;;;;;14.07;8.75;;;;;;;18.48;82.42;96328.09;5094515;28;20448;-66
2023/07/04 00:10:52;;;;;;;9.80;8.13;;;;;;;18.43;82.38;96326.59;5094455;28;20079;-66
2023/07/04 00:13:20;;;;;;;9.25;8.32;;;;;;;18.40;82.30;96324.22;5094353;28;20066;-66
2023/07/04 00:15:48;;;;;;;11.38;8.20;;;;;;;18.35;82.52;96323.69;5094360;28;20047;-66
2023/07/04 00:18:17;;;;;;;8.80;7.90;;;;;;;18.36;82.72;96320.06;5094243;28;20048;-66
2023/07/04 00:20:44;;;;;;;9.50;7.55;;;;;;;18.36;82.57;96322.72;5094293;28;20555;-66
2023/07/04 00:23:11;;;;;;;9.75;7.70;;;;;;;18.36;82.08;96329.84;5094172;28;20044;-66
2023/07/04 00:25:40;;;;;;;17.38;8.68;;;;;;;18.29;82.43;96325.00;5094204;28;20062;-65
2023/07/04 00:28:07;;;;;;;8.38;7.45;;;;;;;18.29;82.76;96325.00;5094112;28;20127;-66
2023/07/04 00:30:34;;;;;;;8.68;7.80;;;;;;;18.31;82.36;96328.34;5094077;28;20131;-66
2023/07/04 00:33:01;;;;;;;11.95;8.10;;;;;;;18.34;82.56;96331.75;5094127;28;20059;-66
2023/07/04 00:35:28;;;;;;;9.80;7.28;;;;;;;18.31;82.23;96323.06;5093976;28;20040;-66
2023/07/04 00:37:56;;;;;;;8.65;7.80;;;;;;;18.32;82.07;96326.56;5093891;28;20059;-66
2023/07/04 00:40:24;;;;;;;8.38;7.25;;;;;;;18.31;81.72;96333.66;5093917;28;20048;-66
2023/07/04 00:43:02;;;;;;;9.60;8.07;;;;;;;18.31;82.00;96330.16;5093810;28;20048;-66
2023/07/04 00:45:31;;;;;;;11.95;7.85;;;;;;;18.30;82.52;96334.63;5093644;28;20079;-66
2023/07/04 00:48:00;;;;;;;9.35;8.43;;;;;;;18.19;82.93;96331.91;5093743;28;20083;-66
2023/07/04 00:50:31;;;;;;;10.13;8.13;;;;;;;18.13;83.21;96330.56;5093399;28;20051;-66
2023/07/04 00:53:01;;;;;;;10.10;7.95;;;;;;;18.12;84.07;96346.53;5093720;28;20048;-66
2023/07/04 00:55:28;;;;;;;8.68;7.80;;;;;;;18.16;83.87;96346.22;5093569;28;20076;-66
2023/07/04 00:57:57;;;;;;;8.77;7.55;;;;;;;18.17;83.61;96347.03;5093506;28;20055;-66
2023/07/04 01:00:25;;;;;;;13.90;7.93;;;;;;;18.16;83.32;96335.63;5093631;28;20070;-66
2023/07/04 01:03:02;;;;;;;10.65;8.30;;;;;;;18.18;83.37;96341.63;5093510;28;20044;-66
2023/07/04 01:05:39;;;;;;;9.98;7.97;;;;;;;18.21;83.23;96345.03;5093553;28;20051;-66
2023/07/04 01:08:12;;;;;;;8.98;8.02;;;;;;;18.22;82.77;96339.63;5093477;28;20051;-66
2023/07/04 01:10:43;;;;;;;9.57;7.93;;;;;;;18.22;82.42;96336.97;5093403;28;20044;-66
2023/07/04 01:13:29;;;;;;;8.70;7.22;;;;;;;18.16;82.37;96351.50;5093303;28;20486;-66
2023/07/04 01:15:57;;;;;;;9.73;8.30;;;;;;;18.16;82.71;96340.06;5093350;28;20051;-66
2023/07/04 01:18:24;;;;;;;11.02;7.88;;;;;;;18.07;82.52;96349.47;5093199;28;20386;-66
2023/07/04 01:20:52;;;;;;;8.38;7.57;;;;;;;18.05;82.75;96346.09;5093291;28;20486;-66
2023/07/04 01:23:32;;;;;;;8.23;7.43;;;;;;;17.97;82.41;96346.63;5093179;28;20410;-66
2023/07/04 01:26:13;;;;;;;11.82;7.60;;;;;;;17.89;83.16;96349.84;5093233;28;20048;-66
2023/07/04 01:28:41;;;;;;;11.98;8.25;;;;;;;17.91;83.44;96352.38;5093169;28;20055;-66
2023/07/04 01:31:08;;;;;;;9.07;8.18;;;;;;;17.89;83.07;96352.50;5093163;28;20512;-66
2023/07/04 01:33:35;;;;;;;8.15;7.32;;;;;;;17.90;82.75;96356.81;5093141;28;20055;-66
2023/07/04 01:36:05;;;;;;;9.13;8.10;;;;;;;17.89;82.75;96351.63;5093132;28;20044;-66
2023/07/04 01:38:32;;;;;;;9.45;8.02;;;;;;;17.86;82.50;96362.44;5092978;28;20048;-66
2023/07/04 01:40:59;;;;;;;11.13;7.32;;;;;;;17.84;82.40;96361.69;5092966;28;20048;-66
2023/07/04 01:43:27;;;;;;;13.82;8.20;;;;;;;17.81;82.70;96360.09;5093141;28;20573;-66
2023/07/04 01:45:54;;;;;;;12.13;7.70;;;;;;;17.75;82.81;96357.88;5093119;28;20110;-65
2023/07/04 01:48:21;;;;;;;9.32;8.18;;;;;;;17.70;83.77;96352.91;5093069;28;20052;-66
2023/07/04 01:50:49;;;;;;;11.70;8.02;;;;;;;17.75;84.13;96363.19;5093013;28;20083;-66
2023/07/04 01:53:16;;;;;;;12.05;8.80;;;;;;;17.74;83.69;96357.06;5092982;28;20052;-66
2023/07/04 01:55:44;;;;;;;9.15;8.18;;;;;;;17.75;83.76;96366.69;5093008;28;20055;-66
2023/07/04 01:58:11;;;;;;;9.23;8.32;;;;;;;17.74;83.27;96357.06;5092942;28;20250;-66
2023/07/04 02:00:39;;;;;;;8.95;7.95;;;;;;;17.66;83.73;96359.38;5092860;28;20528;-66
2023/07/04 02:03:07;;;;;;;9.80;8.00;;;;;;;17.64;83.14;96363.94;5094431;28;20044;-66
2023/07/04 02:05:34;;;;;;;9.95;8.68;;;;;;;17.64;83.40;96358.66;5096819;28;20527;-66
2023/07/04 02:08:01;;;;;;;8.85;7.95;;;;;;;17.62;82.97;96364.06;5096802;28;20063;-66
2023/07/04 02:10:29;;;;;;;15.20;8.05;;;;;;;17.62;83.19;96366.69;5096797;28;20044;-66
2023/07/04 02:12:56;;;;;;;11.55;8.68;;;;;;;17.60;83.38;96367.72;5096893;28;20047;-66
2023/07/04 02:15:24;;;;;;;9.27;8.27;;;;;;;17.54;83.57;96361.06;5096686;28;20076;-66
2023/07/04 02:17:53;;;;;;;8.63;7.82;;;;;;;17.50;83.08;96357.81;5096583;28;20463;-66
2023/07/04 02:20:20;;;;;;;9.02;8.13;;;;;;;17.42;83.42;96362.78;5096622;28;20044;-66
2023/07/04 02:22:47;;;;;;;9.10;7.50;;;;;;;17.33;83.75;96364.25;5096568;28;20059;-66
2023/07/04 02:25:15;;;;;;;10.10;8.63;;;;;;;17.25;85.02;96362.13;5096581;28;20468;-66
2023/07/04 02:27:42;;;;;;;10.93;8.35;;;;;;;17.12;86.30;96361.25;5096505;28;20052;-66
2023/07/04 02:30:10;;;;;;;10.27;8.60;;;;;;;17.13;87.31;96360.34;5096278;28;20493;-65
2023/07/04 02:32:37;;;;;;;9.85;8.45;;;;;;;17.16;86.68;96366.25;5095236;28;20105;-66
2023/07/04 02:35:07;;;;;;;10.00;9.00;;;;;;;17.20;86.32;96364.25;5096292;28;20406;-66
2023/07/04 02:37:34;;;;;;;12.40;8.73;;;;;;;17.20;86.03;96369.53;5096151;28;20574;-66
2023/07/04 02:40:01;;;;;;;8.18;7.47;;;;;;;17.17;85.56;96361.81;5096215;28;20079;-66
2023/07/04 02:42:28;;;;;;;12.98;8.63;;;;;;;17.18;85.36;96364.34;5096365;28;20047;-66
2023/07/04 02:44:56;;;;;;;13.27;8.63;;;;;;;17.17;85.96;96372.38;5095861;28;20048;-65
2023/07/04 02:47:26;;;;;;;12.48;9.82;;;;;;;17.15;87.23;96366.34;5096211;28;20048;-65
2023/07/04 02:49:54;;;;;;;11.05;9.95;;;;;;;17.11;89.04;96362.22;5096077;28;20457;-65
2023/07/04 02:52:26;;;;;;;10.35;9.25;;;;;;;17.09;88.65;96359.69;5095970;28;20055;-65
2023/07/04 02:54:53;;;;;;;10.82;9.15;;;;;;;17.12;88.53;96354.19;5095853;28;20048;-66
2023/07/04 02:57:20;;;;;;;10.57;8.38;;;;;;;17.18;88.03;96361.72;5095820;28;20044;-65
2023/07/04 02:59:47;;;;;;;9.48;8.38;;;;;;;17.20;87.71;96366.03;5095805;28;20131;-66
2023/07/04 03:02:14;;;;;;;11.88;8.40;;;;;;;17.24;86.98;96368.38;5095768;28;20403;-66
2023/07/04 03:04:41;;;;;;;13.65;8.88;;;;;;;17.30;86.39;96361.81;5095844;28;20044;-65
2023/07/04 03:07:08;;;;;;;11.55;8.95;;;;;;;17.34;86.29;96365.94;5095615;28;20555;-66
2023/07/04 03:09:38;;;;;;;12.63;9.20;;;;;;;17.44;86.42;96374.09;5095704;28;20059;-66
2023/07/04 03:12:06;;;;;;;9.77;8.77;;;;;;;17.47;86.08;96367.75;5095647;28;20078;-65
2023/07/04 03:14:33;;;;;;;8.85;7.95;;;;;;;17.51;85.29;96364.78;5095380;28;20040;-66
2023/07/04 03:17:00;;;;;;;9.05;8.15;;;;;;;17.57;84.80;96365.34;5095510;28;20048;-65
2023/07/04 03:19:28;;;;;;;9.68;8.38;;;;;;;17.59;84.03;96360.75;5095519;28;20108;-66
2023/07/04 03:21:55;;;;;;;9.18;8.00;;;;;;;17.59;84.08;96366.91;5095341;28;20048;-66
2023/07/04 03:24:22;;;;;;;14.07;8.55;;;;;;;17.63;84.12;96365.75;5094112;28;20105;-66
2023/07/04 03:26:52;;;;;;;8.70;7.75;;;;;;;17.68;84.08;96368.94;5094189;28;20048;-65
2023/07/04 03:29:20;;;;;;;9.05;8.15;;;;;;;17.73;84.27;96365.94;5095417;28;20487;-65
2023/07/04 03:31:47;;;;;;;10.18;8.90;;;;;;;17.77;84.32;96362.13;5095197;28;20081;-65
2023/07/04 03:34:14;;;;;;;12.90;8.52;;;;;;;17.83;85.29;96366.16;5095149;28;20513;-65
2023/07/04 03:36:41;;;;;;;8.55;7.72;;;;;;;17.87;85.51;96358.81;5095113;28;20048;-66
2023/07/04 03:39:08;;;;;;;10.38;8.15;;;;;;;18.04;85.10;96362.94;5095084;28;20052;-66
2023/07/04 03:41:36;;;;;;;8.40;7.50;;;;;;;18.28;84.24;96367.44;5095243;28;20044;-66
2023/07/04 03:44:05;;;;;;;7.90;7.10;;;;;;;18.53;82.80;96363.00;5095003;28;20510;-66
2023/07/04 03:46:32;;;;;;;10.60;7.50;;;;;;;18.83;81.18;96364.34;5094672;28;20105;-66
2023/07/04 03:49:00;;;;;;;8.25;6.75;;;;;;;19.22;80.26;96360.66;5094966;28;20413;-66
2023/07/04 03:51:27;;;;;;;7.22;6.45;;;;;;;19.54;78.12;96352.03;5094762;28;20505;-66
2023/07/04 03:53:54;;;;;;;9.15;6.85;;;;;;;19.95;76.06;96363.00;5094681;28;20051;-66
2023/07/04 03:56:21;;;;;;;6.53;5.85;;;;;;;20.34;74.22;96362.63;5094811;28;20044;-66
2023/07/04 03:58:49;;;;;;;10.30;6.18;;;;;;;20.70;73.02;96362.41;5094592;28;20056;-66
2023/07/04 04:01:17;;;;;;;7.15;5.68;;;;;;;21.14;71.54;96367.69;5094652;28;20056;-66
2023/07/04 04:03:45;;;;;;;8.68;6.10;;;;;;;21.52;69.89;96367.25;5094637;28;20044;-66
2023/07/04 04:06:12;;;;;;;6.43;5.80;;;;;;;21.88;68.76;96367.72;5094658;28;20136;-66
2023/07/04 04:08:39;;;;;;;10.57;5.45;;;;;;;22.27;66.80;96372.34;5094605;28;20132;-66
2023/07/04 04:11:06;;;;;;;6.53;5.25;;;;;;;22.63;65.35;96373.72;5094366;28;20048;-66
2023/07/04 04:13:33;;;;;;;9.90;5.50;;;;;;;22.94;64.36;96379.75;5094494;28;20052;-66
2023/07/04 04:16:01;;;;;;;6.95;5.40;;;;;;;23.28;63.62;96382.97;5094384;28;20044;-67
2023/07/04 04:18:30;;;;;;;6.63;5.97;;;;;;;23.63;62.93;96383.38;5094345;28;20405;-67
2023/07/04 04:20:58;;;;;;;9.43;4.93;;;;;;;24.00;61.98;96385.22;5094334;28;20044;-67
2023/07/04 04:23:25;;;;;;;6.72;5.00;;;;;;;24.33;60.08;96392.81;5094416;28;20044;-66
2023/07/04 04:25:53;;;;;;;8.10;5.30;;;;;;;24.60;59.29;96394.63;5093593;28;20040;-67
2023/07/04 04:28:20;;;;;;;8.50;5.10;;;;;;;24.81;58.89;96398.88;5094182;28;20478;-67
2023/07/04 04:30:48;;;;;;;6.32;5.13;;;;;;;25.03;58.40;96394.06;5094034;28;20051;-67
2023/07/04 04:33:16;;;;;;;5.78;5.18;;;;;;;25.24;58.19;96398.25;5094110;28;20067;-67
2023/07/04 04:35:46;;;;;;;5.95;4.82;;;;;;;25.51;57.46;96398.28;5094018;28;20387;-67
2023/07/04 04:38:13;;;;;;;5.25;4.75;;;;;;;25.72;57.35;96403.34;5093913;28;20521;-67
2023/07/04 04:40:40;;;;;;;6.10;5.07;;;;;;;25.92;56.77;96401.28;5093910;28;20044;-66
2023/07/04 04:43:08;;;;;;;8.02;5.53;;;;;;;26.23;56.21;96407.97;5093950;28;20058;-67
2023/07/04 04:45:36;;;;;;;5.95;5.35;;;;;;;26.48;55.20;96406.25;5093546;28;20521;-67
2023/07/04 04:48:06;;;;;;;5.78;5.13;;;;;;;26.71;55.22;96421.75;5093844;28;20095;-66
2023/07/04 04:50:33;;;;;;;7.88;5.55;;;;;;;27.05;54.53;96414.63;5093675;28;20514;-67
2023/07/04 04:53:02;;;;;;;8.13;5.85;;;;;;;27.34;53.70;96420.50;5093719;28;20044;-66
2023/07/04 04:55:30;;;;;;;6.50;5.85;;;;;;;27.60;52.50;96417.66;5093677;28;20048;-67
2023/07/04 04:57:57;;;;;;;7.63;6.35;;;;;;;27.88;51.59;96417.28;5093621;28;20048;-67
2023/07/04 05:00:24;;;;;;;7.88;6.97;;;;;;;28.13;51.48;96413.72;5093567;28;20052;-67
2023/07/04 05:02:51;;;;;;;8.73;6.72;;;;;;;28.27;49.95;96412.16;5093476;28;20044;-67
2023/07/04 05:05:18;;;;;;;8.32;6.45;;;;;;;28.45;48.30;96420.03;5093530;28;20098;-67
2023/07/04 05:07:45;;;;;;;7.55;6.45;;;;;;;28.64;48.24;96420.59;5093491;28;20052;-67
2023/07/04 05:10:15;;;;;;;6.05;5.50;;;;;;;28.88;50.66;96416.94;5093382;28;20139;-67
2023/07/04 05:12:43;;;;;;;8.98;6.32;;;;;;;29.01;49.26;96426.28;5093427;28;20059;-67
2023/07/04 05:15:10;;;;;;;7.95;5.72;;;;;;;29.16;49.55;96420.16;5093383;28;20048;-67
2023/07/04 05:17:38;;;;;;;6.65;5.72;;;;;;;29.23;48.95;96418.41;5093358;28;20087;-67
2023/07/04 05:20:07;;;;;;;5.60;5.05;;;;;;;29.43;49.24;96420.63;5093343;28;20512;-67
2023/07/04 05:22:34;;;;;;;5.40;4.70;;;;;;;29.64;48.26;96428.88;5093258;28;20087;-67
2023/07/04 05:25:01;;;;;;;10.75;5.55;;;;;;;29.93;48.85;96415.63;5093298;28;20040;-67
2023/07/04 05:27:30;;;;;;;7.05;4.80;;;;;;;30.19;49.09;96418.94;5093234;28;20047;-67
2023/07/04 05:29:57;;;;;;;5.40;4.90;;;;;;;30.43;49.88;96415.09;5093184;28;20044;-67
2023/07/04 05:32:24;;;;;;;5.80;5.15;;;;;;;30.63;48.20;96418.03;5093251;28;20040;-67
2023/07/04 05:34:51;;;;;;;5.50;4.80;;;;;;;30.97;49.45;96423.03;5093116;28;20043;-67
2023/07/04 05:37:19;;;;;;;10.93;6.22;;;;;;;31.26;48.32;96423.91;5095091;28;20044;-67
2023/07/04 05:39:46;;;;;;;5.78;5.18;;;;;;;31.54;47.24;96425.84;5097372;28;20064;-67
2023/07/04 05:42:13;;;;;;;7.20;5.32;;;;;;;31.80;47.38;96426.25;5097375;28;20076;-67
2023/07/04 05:44:42;;;;;;;6.05;5.18;;;;;;;31.96;45.52;96427.88;5097317;28;20093;-68
2023/07/04 05:47:09;;;;;;;5.63;5.00;;;;;;;32.06;44.81;96424.81;5097064;28;20055;-67
2023/07/04 05:49:36;;;;;;;10.07;6.20;;;;;;;32.27;44.67;96430.13;5097051;28;20468;-68
2023/07/04 05:52:04;;;;;;;9.70;6.10;;;;;;;32.46;44.03;96429.59;5097072;28;20044;-68
2023/07/04 05:54:31;;;;;;;8.52;6.38;;;;;;;32.68;43.74;96424.13;5097020;28;20506;-68
2023/07/04 05:56:58;;;;;;;7.35;5.70;;;;;;;32.69;43.08;96423.94;5097056;28;20050;-67
2023/07/04 05:59:26;;;;;;;10.65;5.50;;;;;;;32.78;42.69;96424.59;5096982;28;20499;-68
2023/07/04 06:01:55;;;;;;;5.90;5.40;;;;;;;32.88;40.81;96425.03;5096978;28;20052;-67
2023/07/04 06:04:22;;;;;;;6.18;5.28;;;;;;;32.99;40.35;96430.88;5097151;28;20044;-68
2023/07/04 06:06:52;;;;;;;6.38;5.32;;;;;;;33.10;40.53;96424.88;5096971;28;20047;-67
2023/07/04 06:09:20;;;;;;;;;;;;;;;33.24;39.93;96431.19;5097279;28;20464;-68
2023/07/04 06:11:48;;;;;;;6.97;5.68;;;;;;;33.33;40.00;96431.81;5096826;28;19923;-67
2023/07/04 06:14:17;;;;;;;10.00;5.63;;;;;;;33.43;39.16;96425.16;5096848;28;20071;-68
2023/07/04 06:16:44;;;;;;;7.05;5.80;;;;;;;33.58;42.19;96422.22;5096702;28;20044;-68
2023/07/04 06:19:13;;;;;;;8.75;5.82;;;;;;;33.58;39.31;96430.34;5096550;28;20066;-68
2023/07/04 06:21:40;;;;;;;11.13;5.10;;;;;;;33.77;40.19;96424.13;5096662;28;20040;-67
2023/07/04 06:24:07;;;;;;;7.35;5.78;;;;;;;33.85;39.17;96422.25;5096491;28;20087;-68
2023/07/04 06:26:35;;;;;;;7.22;5.28;;;;;;;33.95;39.51;96417.22;5096496;28;20055;-68
2023/07/04 06:29:02;;;;;;;8.93;5.38;;;;;;;34.00;40.20;96413.88;5096423;28;20076;-67
2023/07/04 06:31:29;;;;;;;6.47;5.35;;;;;;;34.14;38.52;96409.31;5096438;28;20044;-68
2023/07/04 06:33:56;;;;;;;5.32;4.78;;;;;;;34.36;37.08;96409.00;5096536;28;20101;-68
2023/07/04 06:36:25;;;;;;;6.47;5.43;;;;;;;34.59;37.57;96407.69;5096518;28;20075;-68
2023/07/04 06:38:53;;;;;;;9.48;5.22;;;;;;;34.82;36.51;96409.06;5096218;28;20094;-68
2023/07/04 06:41:20;;;;;;;5.75;5.15;;;;;;;34.83;36.73;96408.88;5096232;28;20103;-68
2023/07/04 06:43:48;;;;;;;8.05;7.30;;;;;;;34.70;34.21;96412.47;5096305;28;20048;-68
2023/07/04 06:46:18;;;;;;;7.47;6.78;;;;;;;34.78;33.81;96412.22;5095862;28;20055;-68
2023/07/04 06:48:47;;;;;;;6.10;5.50;;;;;;;34.97;32.05;96416.94;5095514;28;20052;-67
2023/07/04 06:51:16;;;;;;;6.10;5.53;;;;;;;35.04;33.47;96406.88;5096093;28;20056;-68
2023/07/04 06:53:46;;;;;;;7.43;6.67;;;;;;;35.00;33.46;96411.88;5095978;28;20402;-68
2023/07/04 06:56:15;;;;;;;7.35;6.25;;;;;;;35.14;33.42;96407.22;5096017;28;20067;-67
2023/07/04 06:58:47;;;;;;;7.55;6.28;;;;;;;35.36;33.99;96408.78;5095884;28;20044;-68
2023/07/04 07:01:14;;;;;;;8.95;6.35;;;;;;;35.44;32.74;96404.94;5095894;28;20044;-68
2023/07/04 07:03:41;;;;;;;8.77;6.13;;;;;;;35.45;31.79;96412.88;5095695;28;20044;-67
2023/07/04 07:06:10;;;;;;;8.82;6.63;;;;;;;35.27;33.05;96398.16;5095850;28;20455;-68
2023/07/04 07:08:37;;;;;;;6.97;6.28;;;;;;;35.25;33.15;96405.72;5095796;28;20095;-67
2023/07/04 07:11:08;;;;;;;6.70;6.07;;;;;;;35.34;31.85;96402.72;5095730;28;20044;-68
2023/07/04 07:13:36;;;;;;;9.38;6.15;;;;;;;35.36;33.56;96404.16;5095687;28;20047;-68
2023/07/04 07:16:08;;;;;;;7.55;6.80;;;;;;;35.36;34.21;96401.44;5095697;28;20094;-68
2023/07/04 07:18:36;;;;;;;10.43;5.93;;;;;;;35.53;32.66;96403.59;5095523;28;20043;-67
2023/07/04 07:21:03;;;;;;;9.05;6.40;;;;;;;35.39;33.31;96406.44;5095521;28;20105;-67
2023/07/04 07:23:31;;;;;;;11.82;6.32;;;;;;;35.47;32.86;96412.66;5095574;28;20089;-67
2023/07/04 07:25:59;;;;;;;7.03;6.18;;;;;;;35.53;32.54;96414.47;5095346;28;20044;-67
2023/07/04 07:28:29;;;;;;;7.22;5.88;;;;;;;35.57;30.69;96410.25;5095274;28;20481;-67
2023/07/04 07:31:03;;;;;;;6.68;5.95;;;;;;;35.70;30.49;96411.25;5095258;28;20070;-67
2023/07/04 07:33:32;;;;;;;7.00;6.25;;;;;;;35.45;30.46;96406.63;5095367;28;20375;-68
2023/07/04 07:36:00;;;;;;;8.43;6.65;;;;;;;34.92;30.52;96404.81;5095189;28;20040;-67
2023/07/04 07:38:27;;;;;;;6.38;5.60;;;;;;;34.62;31.11;96402.66;5095214;28;20123;-67
2023/07/04 07:40:55;;;;;;;8.45;5.78;;;;;;;34.50;30.15;96410.66;5095061;28;20448;-68
2023/07/04 07:43:22;;;;;;;8.43;5.78;;;;;;;34.60;32.33;96406.63;5095046;28;20044;-67
2023/07/04 07:45:51;;;;;;;7.38;5.65;;;;;;;34.92;32.07;96407.53;5094825;28;20044;-67
2023/07/04 07:48:19;;;;;;;6.80;6.18;;;;;;;34.92;31.56;96404.81;5094932;28;20086;-68
2023/07/04 07:50:47;;;;;;;8.68;6.35;;;;;;;35.01;33.83;96404.59;5094871;28;20437;-68
2023/07/04 07:53:15;;;;;;;8.93;5.82;;;;;;;35.11;33.01;96410.38;5094781;28;20051;-68
2023/07/04 07:55:43;;;;;;;6.38;5.85;;;;;;;35.29;32.48;96414.25;5094739;28;20048;-68
2023/07/04 07:58:11;;;;;;;6.10;5.50;;;;;;;35.31;31.89;96411.31;5094668;28;20409;-67
2023/07/04 08:00:38;;;;;;;6.53;5.93;;;;;;;35.58;31.79;96419.25;5093495;28;20052;-68
2023/07/04 08:03:07;;;;;;;6.43;5.82;;;;;;;35.71;31.06;96416.47;5094846;28;20044;-68
2023/07/04 08:05:40;;;;;;;9.07;5.78;;;;;;;35.94;31.46;96414.16;5094775;28;20098;-68
2023/07/04 08:08:07;;;;;;;6.80;5.90;;;;;;;35.92;32.72;96411.66;5094691;28;20062;-68
2023/07/04 08:10:37;;;;;;;6.97;6.32;;;;;;;35.97;31.23;96413.72;5094574;28;20044;-68
2023/07/04 08:13:04;;;;;;;8.30;6.05;;;;;;;35.91;32.31;96418.97;5094487;28;20040;-68
2023/07/04 08:15:32;;;;;;;9.38;6.00;;;;;;;35.83;33.97;96422.00;5094411;28;20546;-68
2023/07/04 08:18:04;;;;;;;6.25;5.15;;;;;;;35.78;30.76;96419.94;5094362;28;20052;-68
2023/07/04 08:20:33;;;;;;;7.57;6.22;;;;;;;35.64;32.72;96410.22;5094181;28;20048;-68
2023/07/04 08:23:00;;;;;;;9.05;6.10;;;;;;;35.68;31.21;96414.16;5094355;28;20144;-68
2023/07/04 08:25:27;;;;;;;8.15;6.28;;;;;;;35.47;31.41;96415.38;5094159;28;20048;-67
2023/07/04 08:27:55;;;;;;;9.10;6.07;;;;;;;35.38;31.47;96414.81;5094202;28;20109;-68
2023/07/04 08:30:22;;;;;;;7.63;5.72;;;;;;;35.52;31.04;96418.25;5094044;28;20101;-68
2023/07/04 08:32:49;;;;;;;9.65;6.93;;;;;;;35.44;34.00;96415.81;5094020;28;20146;-68
2023/07/04 08:35:17;;;;;;;9.95;6.20;;;;;;;35.44;32.97;96413.09;5094098;28;20101;-68
2023/07/04 08:37:45;;;;;;;6.68;5.80;;;;;;;35.23;32.55;96421.41;5093955;28;20044;-69
2023/07/04 08:40:14;;;;;;;6.63;6.03;;;;;;;34.91;32.27;96419.47;5093865;28;20044;-67
2023/07/04 08:42:42;;;;;;;7.00;5.65;;;;;;;34.86;33.94;96421.16;5093881;28;20524;-68
2023/07/04 08:45:18;;;;;;;6.57;5.75;;;;;;;35.08;34.61;96420.81;5093626;28;20064;-67
2023/07/04 08:47:45;;;;;;;6.35;5.57;;;;;;;35.33;32.33;96426.34;5093866;28;20044;-67
2023/07/04 08:50:18;;;;;;;9.52;5.68;;;;;;;34.94;32.14;96410.03;5093896;28;20066;-67
2023/07/04 08:52:52;;;;;;;6.72;5.70;;;;;;;34.99;31.45;96421.09;5093818;28;20048;-67
2023/07/04 08:55:22;;;;;;;8.85;5.57;;;;;;;34.62;32.68;96413.53;5093713;28;20055;-68
2023/07/04 08:57:53;;;;;;;8.00;6.43;;;;;;;34.45;32.76;96407.75;5093662;28;20452;-68
2023/07/04 09:00:27;;;;;;;6.82;5.97;;;;;;;34.36;33.53;96412.56;5093492;28;20048;-66
2023/07/04 09:03:09;;;;;;;8.68;6.20;;;;;;;34.33;33.69;96407.56;5093675;28;20114;-66
2023/07/04 09:05:48;;;;;;;7.13;5.55;;;;;;;34.04;32.90;96405.09;5093563;28;20535;-67
2023/07/04 09:08:34;;;;;;;6.53;5.93;;;;;;;34.18;35.71;96393.41;5093365;28;20093;-67
2023/07/04 09:11:05;;;;;;;6.72;5.85;;;;;;;34.52;33.65;96400.41;5093385;28;20044;-67
2023/07/04 09:13:37;;;;;;;8.10;6.22;;;;;;;34.65;33.99;96405.00;5093377;28;20047;-68
2023/07/04 09:16:08;;;;;;;8.13;5.88;;;;;;;34.53;33.91;96402.06;5093451;28;20494;-67
2023/07/04 09:18:42;;;;;;;7.65;5.95;;;;;;;34.26;30.95;96398.63;5093379;28;20566;-67
2023/07/04 09:21:12;;;;;;;7.60;6.53;;;;;;;33.90;30.93;96404.31;5093188;28;20130;-68
2023/07/04 09:23:41;;;;;;;6.75;6.05;;;;;;;33.81;32.42;96405.56;5093334;28;20044;-68
2023/07/04 09:26:11;;;;;;;9.80;7.00;;;;;;;33.73;31.76;96398.47;5093395;28;20125;-68
2023/07/04 09:28:40;;;;;;;;;;;;;;;33.87;36.16;96403.91;5093720;28;20071;-67
2023/07/04 09:31:13;;;;;;;7.18;6.38;;;;;;;34.01;35.14;96400.09;5093311;28;19924;-68
2023/07/04 09:33:42;;;;;;;7.32;6.00;;;;;;;34.06;32.43;96396.75;5093190;28;20505;-68
2023/07/04 09:36:10;;;;;;;7.72;6.45;;;;;;;34.16;32.16;96397.19;5093284;28;20066;-67
2023/07/04 09:38:56;;;;;;;7.35;6.65;;;;;;;34.22;31.91;96402.81;5093164;28;20075;-67
2023/07/04 09:41:26;;;;;;;6.82;6.13;;;;;;;33.88;33.10;96397.41;5093069;28;20055;-68
2023/07/04 09:43:54;;;;;;;7.65;6.68;;;;;;;33.69;34.90;96401.81;5093070;28;20048;-68
2023/07/04 09:46:25;;;;;;;10.65;6.68;;;;;;;33.32;33.29;96411.19;5092815;28;20555;-67
2023/07/04 09:48:53;;;;;;;6.63;6.03;;;;;;;32.91;32.74;96407.53;5093013;28;20130;-67
2023/07/04 09:51:24;;;;;;;9.95;6.32;;;;;;;32.69;36.12;96396.84;5093001;28;20414;-68
2023/07/04 09:53:52;;;;;;;8.93;6.38;;;;;;;32.77;38.03;96399.38;5093002;28;20413;-67
2023/07/04 09:56:27;;;;;;;9.23;6.00;;;;;;;32.73;34.89;96397.28;5092994;28;20055;-68
2023/07/04 09:59:12;;;;;;;10.07;6.68;;;;;;;32.93;37.14;96400.03;5092909;28;20051;-67
2023/07/04 10:01:40;;;;;;;8.20;6.70;;;;;;;32.86;33.61;96402.72;5092929;28;20130;-68
2023/07/04 10:04:08;;;;;;;7.80;6.43;;;;;;;32.81;33.82;96401.66;5092941;28;20044;-67
2023/07/04 10:06:38;;;;;;;6.68;6.07;;;;;;;32.76;33.88;96408.53;5092913;28;20048;-67
2023/07/04 10:09:15;;;;;;;8.48;6.22;;;;;;;32.91;34.47;96404.81;5092868;28;20054;-67
2023/07/04 10:11:43;;;;;;;7.63;6.38;;;;;;;32.98;36.61;96397.53;5092796;28;20079;-67
2023/07/04 10:14:13;;;;;;;6.63;6.03;;;;;;;33.16;35.48;96401.56;5092782;28;20062;-67
2023/07/04 10:16:50;;;;;;;8.05;6.72;;;;;;;33.24;33.52;96404.09;5092858;28;20044;-67
2023/07/04 10:19:20;;;;;;;8.23;6.30;;;;;;;33.28;33.25;96393.66;5092922;28;20051;-67
2023/07/04 10:21:50;;;;;;;6.80;6.10;;;;;;;33.41;36.41;96396.38;5092689;28;20484;-68
2023/07/04 10:24:20;;;;;;;6.85;6.25;;;;;;;33.63;37.03;96387.22;5094465;28;20044;-67
2023/07/04 10:26:51;;;;;;;7.77;6.50;;;;;;;33.78;31.99;96389.72;5096622;28;20051;-68
2023/07/04 10:29:21;;;;;;;10.52;6.20;;;;;;;33.68;31.46;96383.91;5096555;28;20050;-68
2023/07/04 10:31:51;;;;;;;7.53;6.13;;;;;;;33.67;34.27;96383.06;5096538;28;20473;-67
2023/07/04 10:34:21;;;;;;;8.60;6.07;;;;;;;33.76;32.41;96383.66;5096463;28;20134;-67
2023/07/04 10:36:51;;;;;;;6.53;5.60;;;;;;;33.95;36.42;96379.25;5096432;28;20082;-68
2023/07/04 10:39:19;;;;;;;7.15;6.30;;;;;;;33.95;33.69;96376.53;5096356;28;20410;-68
2023/07/04 10:41:55;;;;;;;5.82;5.30;;;;;;;33.93;33.39;96375.94;5096241;28;20054;-67
2023/07/04 10:44:26;;;;;;;6.93;6.22;;;;;;;33.88;34.64;96370.31;5096175;28;20091;-68
2023/07/04 10:46:57;;;;;;;7.45;6.10;;;;;;;33.72;30.80;96374.28;5095987;28;20093;-68
2023/07/04 10:49:27;;;;;;;6.70;6.00;;;;;;;33.38;32.34;96366.16;5096227;28;20082;-68
2023/07/04 10:52:00;;;;;;;11.82;6.60;;;;;;;32.81;35.16;96361.91;5096062;28;20413;-67
2023/07/04 10:54:27;;;;;;;7.18;6.38;;;;;;;32.22;35.48;96366.84;5096057;28;20077;-68
2023/07/04 10:57:03;;;;;;;8.88;6.57;;;;;;;31.78;35.65;96365.13;5096040;28;20131;-68
2023/07/04 10:59:34;;;;;;;7.20;6.50;;;;;;;31.77;34.42;96360.78;5095828;28;20466;-67
2023/07/04 11:02:07;;;;;;;9.88;5.68;;;;;;;32.07;36.44;96348.91;5095892;28;20052;-67
2023/07/04 11:04:39;;;;;;;12.15;6.65;;;;;;;32.35;36.72;96361.50;5095835;28;20056;-68
2023/07/04 11:07:09;;;;;;;6.28;5.72;;;;;;;32.52;35.20;96363.91;5095759;28;20549;-67
2023/07/04 11:09:41;;;;;;;6.05;5.35;;;;;;;32.61;37.47;96359.97;5095726;28;20048;-67
2023/07/04 11:12:19;;;;;;;13.23;6.40;;;;;;;32.76;35.59;96348.97;5095763;28;20500;-67
2023/07/04 11:14:48;;;;;;;10.05;5.88;;;;;;;32.67;33.08;96349.34;5095657;28;20604;-68
2023/07/04 11:17:20;;;;;;;8.43;5.80;;;;;;;32.78;33.31;96346.06;5095537;28;20044;-68
2023/07/04 11:19:58;;;;;;;7.30;5.82;;;;;;;33.12;34.27;96340.72;5095529;28;20108;-68
2023/07/04 11:22:57;;;;;;;7.13;5.72;;;;;;;33.25;32.58;96340.72;5095583;28;20083;-68
2023/07/04 11:25:53;;;;;;;7.32;5.90;;;;;;;33.06;35.21;96344.25;5033174;28;20424;-68
2023/07/04 11:28:42;;;;;;;6.95;6.25;;;;;;;32.51;36.07;96335.19;5094328;28;20040;-68
2023/07/04 11:31:15;;;;;;;8.57;5.95;;;;;;;32.59;35.50;96334.16;5095309;28;20051;-68
2023/07/04 11:33:44;;;;;;;8.27;6.22;;;;;;;32.74;35.23;96339.38;5095168;28;20071;-68
2023/07/04 11:36:24;;;;;;;9.45;6.40;;;;;;;32.77;35.23;96329.00;5095083;28;20101;-67
2023/07/04 11:38:53;;;;;;;13.38;6.05;;;;;;;33.08;36.01;96325.94;5095281;28;20060;-67
2023/07/04 11:41:28;;;;;;;7.03;5.88;;;;;;;33.28;37.06;96334.06;5095086;28;20052;-68